Time;durP1;ratioP1;P1;durP2;ratioP2;P2;SDS_P1;SDS_P2;PMS_P1;PMS_P2;Temp;Humidity;BMP_temperature;BMP_pressure;BME280_temperature;BME280_humidity;BME280_pressure;Samples;Min_cycle;Max_cycle;Signal;HPM_P1;HPM_P2
2021/05/24 00:01:31;;;;;;;8.70;8.00;;;7.70;99.90;;;;;;4994675;28;20224;-78
2021/05/24 00:03:57;;;;;;;8.27;7.67;;;7.70;99.90;;;;;;5020703;28;20196;-77
2021/05/24 00:06:24;;;;;;;7.67;7.03;;;7.60;99.90;;;;;;5033582;28;20201;-78
2021/05/24 00:08:51;;;;;;;8.20;7.60;;;7.60;99.90;;;;;;5016252;28;20221;-78
2021/05/24 00:11:18;;;;;;;8.43;7.63;;;7.50;99.90;;;;;;5004873;28;20232;-77
2021/05/24 00:13:51;;;;;;;8.17;7.57;;;7.60;99.90;;;;;;5011817;28;20229;-78
2021/05/24 00:16:17;;;;;;;8.53;7.83;;;7.50;99.90;;;;;;5014555;28;20205;-77
2021/05/24 00:18:46;;;;;;;8.63;7.90;;;7.50;99.90;;;;;;5012145;28;20248;-77
2021/05/24 00:21:12;;;;;;;9.03;8.17;;;7.50;99.90;;;;;;5108465;22;20230;-77
2021/05/24 00:23:39;;;;;;;8.80;8.10;;;7.40;99.90;;;;;;5086289;28;20204;-77
2021/05/24 00:26:06;;;;;;;10.30;8.10;;;7.40;99.90;;;;;;5075806;28;20202;-78
2021/05/24 00:31:38;;;;;;;9.10;8.30;;;7.30;99.90;;;;;;5071943;28;20253;-79
2021/05/24 00:34:05;;;;;;;9.23;8.50;;;7.20;99.90;;;;;;5036569;28;20215;-77
2021/05/24 00:36:33;;;;;;;9.43;8.60;;;7.20;99.90;;;;;;5022053;28;20668;-77
2021/05/24 00:39:00;;;;;;;9.10;8.40;;;7.10;99.90;;;;;;5026485;28;20188;-79
2021/05/24 00:41:27;;;;;;;9.00;8.30;;;7.10;99.90;;;;;;5046829;28;20281;-78
2021/05/24 00:43:54;;;;;;;9.17;8.47;;;7.10;99.90;;;;;;5032965;28;20257;-80
2021/05/24 00:46:20;;;;;;;9.30;8.40;;;7.00;99.90;;;;;;5050160;28;20246;-79
2021/05/24 00:48:46;;;;;;;10.03;9.33;;;7.10;99.90;;;;;;5031623;28;20223;-80
2021/05/24 00:51:13;;;;;;;8.93;8.27;;;7.00;99.90;;;;;;5017108;28;20223;-79
2021/05/24 00:53:39;;;;;;;9.80;8.90;;;7.00;99.90;;;;;;5032585;28;20234;-78
2021/05/24 00:56:05;;;;;;;11.10;10.00;;;7.00;99.90;;;;;;5052194;28;20196;-79
2021/05/24 00:58:36;;;;;;;9.70;8.73;;;7.00;99.90;;;;;;5047936;28;20188;-78
2021/05/24 01:01:05;;;;;;;9.60;8.77;;;7.00;99.90;;;;;;5048424;28;20223;-79
2021/05/24 01:03:33;;;;;;;9.10;8.40;;;7.00;99.90;;;;;;5025056;28;20195;-79
2021/05/24 01:06:00;;;;;;;8.97;8.17;;;7.00;99.90;;;;;;5026434;28;20200;-78
2021/05/24 01:08:27;;;;;;;9.17;8.47;;;6.90;99.90;;;;;;5033418;28;20211;-80
2021/05/24 01:10:54;;;;;;;8.73;8.13;;;6.90;99.90;;;;;;5048863;28;20594;-79
2021/05/24 01:13:21;;;;;;;8.70;8.10;;;6.90;99.90;;;;;;5037307;28;20291;-80
2021/05/24 01:15:48;;;;;;;8.90;8.07;;;6.90;99.90;;;;;;5045620;28;20258;-79
2021/05/24 01:18:14;;;;;;;9.53;8.63;;;6.90;99.90;;;;;;5049172;28;20195;-80
2021/05/24 01:20:42;;;;;;;8.87;8.00;;;6.90;99.90;;;;;;5044622;28;20219;-78
2021/05/24 01:23:11;;;;;;;8.70;7.93;;;6.90;99.90;;;;;;5028852;28;20200;-80
2021/05/24 01:25:43;;;;;;;9.17;8.27;;;6.90;99.90;;;;;;5041919;28;20200;-79
2021/05/24 01:28:10;;;;;;;9.27;8.47;;;6.90;99.90;;;;;;5033910;28;20376;-79
2021/05/24 01:30:38;;;;;;;9.13;8.33;;;6.90;99.90;;;;;;5030341;28;20578;-79
2021/05/24 01:33:05;;;;;;;9.30;8.50;;;6.90;99.90;;;;;;5036327;28;20234;-78
2021/05/24 01:35:32;;;;;;;8.93;8.33;;;6.90;99.90;;;;;;5029456;28;20215;-77
2021/05/24 01:37:58;;;;;;;8.50;7.90;;;6.90;99.90;;;;;;5028340;28;20195;-77
2021/05/24 01:40:26;;;;;;;9.10;8.20;;;6.90;99.90;;;;;;5035261;28;20211;-78
2021/05/24 01:42:53;;;;;;;9.30;8.50;;;6.90;99.90;;;;;;5043888;28;20248;-77
2021/05/24 01:45:20;;;;;;;9.33;8.50;;;6.90;99.90;;;;;;5049993;28;20224;-78
2021/05/24 01:47:46;;;;;;;9.37;8.57;;;6.90;99.90;;;;;;5050660;28;20246;-80
2021/05/24 01:50:14;;;;;;;8.97;8.37;;;6.90;99.90;;;;;;5035534;28;20216;-80
2021/05/24 01:52:41;;;;;;;9.73;8.83;;;6.90;99.90;;;;;;5049807;28;20196;-80
2021/05/24 01:55:09;;;;;;;8.83;8.10;;;6.90;99.90;;;;;;5050772;28;20200;-80
2021/05/24 01:57:36;;;;;;;9.10;8.40;;;6.90;99.90;;;;;;5052276;28;20200;-78
2021/05/24 02:00:05;;;;;;;8.87;8.00;;;6.90;99.90;;;;;;5028337;28;20223;-78
2021/05/24 02:02:31;;;;;;;9.03;8.30;;;6.90;99.90;;;;;;5045255;28;20242;-78
2021/05/24 02:04:58;;;;;;;8.80;8.10;;;6.90;99.90;;;;;;5039735;28;20203;-78
2021/05/24 02:07:29;;;;;;;9.03;8.20;;;6.90;99.90;;;;;;5029201;28;20215;-78
2021/05/24 02:09:56;;;;;;;8.87;8.17;;;6.90;99.90;;;;;;5026898;28;20215;-80
2021/05/24 02:12:23;;;;;;;8.50;7.80;;;6.90;99.90;;;;;;5048718;28;20192;-80
2021/05/24 02:14:51;;;;;;;9.57;8.67;;;6.90;99.90;;;;;;5053402;28;20275;-80
2021/05/24 02:17:18;;;;;;;8.90;8.20;;;6.90;99.90;;;;;;5038771;28;20207;-80
2021/05/24 02:19:46;;;;;;;8.30;7.70;;;6.80;99.90;;;;;;5037230;28;20231;-78
2021/05/24 02:22:12;;;;;;;9.27;8.43;;;6.80;99.90;;;;;;5048612;28;20699;-78
2021/05/24 02:24:39;;;;;;;8.90;8.17;;;6.80;99.90;;;;;;5051187;28;20238;-78
2021/05/24 02:27:05;;;;;;;9.47;8.77;;;6.80;99.90;;;;;;5044928;28;20201;-78
2021/05/24 02:29:32;;;;;;;9.43;8.57;;;6.80;99.90;;;;;;5026617;28;20606;-78
2021/05/24 02:31:59;;;;;;;9.50;8.73;;;6.80;99.90;;;;;;5034991;28;20274;-77
2021/05/24 02:34:25;;;;;;;8.90;8.20;;;6.90;99.90;;;;;;5035976;28;20612;-78
2021/05/24 02:36:52;;;;;;;9.37;8.47;;;6.90;99.90;;;;;;5047748;28;20199;-77
2021/05/24 02:39:18;;;;;;;8.63;8.03;;;6.80;99.90;;;;;;5026943;28;20691;-77
2021/05/24 02:41:45;;;;;;;9.03;8.43;;;6.90;99.90;;;;;;5039353;28;20196;-77
2021/05/24 02:44:12;;;;;;;9.43;8.70;;;6.80;99.90;;;;;;5033030;28;20818;-75
2021/05/24 02:46:39;;;;;;;9.20;8.50;;;6.80;99.90;;;;;;5035922;28;20203;-76
2021/05/24 02:49:06;;;;;;;9.00;8.40;;;6.80;99.90;;;;;;5018258;28;20774;-75
2021/05/24 02:51:33;;;;;;;9.03;8.43;;;6.90;99.90;;;;;;5028466;28;20201;-75
2021/05/24 02:54:00;;;;;;;9.20;8.50;;;6.90;99.90;;;;;;5019389;28;20246;-74
2021/05/24 02:56:27;;;;;;;9.97;9.07;;;6.90;99.90;;;;;;5039876;28;20199;-75
2021/05/24 02:58:53;;;;;;;9.00;8.30;;;6.80;99.90;;;;;;5029942;28;20200;-75
2021/05/24 03:01:21;;;;;;;8.80;8.20;;;6.90;99.90;;;;;;5021595;28;20228;-75
2021/05/24 03:03:53;;;;;;;8.90;8.20;;;6.80;99.90;;;;;;5017210;28;20222;-75
2021/05/24 03:06:21;;;;;;;8.90;8.30;;;6.80;99.90;;;;;;5043849;28;20195;-75
2021/05/24 03:08:48;;;;;;;9.20;8.50;;;6.80;99.90;;;;;;5023747;28;20265;-74
2021/05/24 03:11:14;;;;;;;9.70;8.93;;;6.80;99.90;;;;;;5027418;28;20647;-75
2021/05/24 03:13:41;;;;;;;9.27;8.67;;;6.80;99.90;;;;;;5042887;28;20199;-75
2021/05/24 03:16:07;;;;;;;5.83;5.27;;;6.90;99.90;;;;;;5031481;28;20241;-75
2021/05/24 03:18:34;;;;;;;5.93;5.33;;;7.00;99.90;;;;;;5026169;28;20215;-75
2021/05/24 03:21:01;;;;;;;5.77;5.27;;;7.00;99.90;;;;;;5032984;28;20723;-75
2021/05/24 03:23:28;;;;;;;5.70;5.10;;;7.10;99.90;;;;;;5043907;28;20201;-75
2021/05/24 03:25:54;;;;;;;5.13;4.63;;;7.10;99.90;;;;;;5025778;28;20215;-75
2021/05/24 03:28:21;;;;;;;5.13;4.67;;;7.10;99.90;;;;;;5030672;28;20670;-75
2021/05/24 03:30:47;;;;;;;6.57;5.37;;;7.10;99.90;;;;;;5046492;28;20337;-75
2021/05/24 03:33:13;;;;;;;5.70;5.30;;;7.10;99.90;;;;;;5020935;28;20208;-74
2021/05/24 03:35:40;;;;;;;6.10;5.27;;;7.10;99.90;;;;;;5028713;28;20203;-74
2021/05/24 03:38:06;;;;;;;7.23;6.73;;;7.10;99.90;;;;;;5048315;28;20191;-76
2021/05/24 03:40:34;;;;;;;7.13;6.63;;;7.10;99.90;;;;;;5039922;28;20227;-74
2021/05/24 03:43:00;;;;;;;7.20;6.50;;;7.10;99.90;;;;;;5027317;28;20196;-76
2021/05/24 03:45:27;;;;;;;7.43;6.73;;;7.10;99.90;;;;;;5041474;28;20192;-76
2021/05/24 03:47:54;;;;;;;6.30;5.83;;;7.10;99.90;;;;;;5044232;28;20207;-77
2021/05/24 03:50:21;;;;;;;6.33;5.70;;;7.10;99.90;;;;;;5020857;28;21210;-77
2021/05/24 03:52:48;;;;;;;7.07;6.17;;;7.10;99.90;;;;;;5045567;28;20200;-77
2021/05/24 03:55:17;;;;;;;6.20;5.60;;;7.10;99.90;;;;;;5048207;28;20274;-77
2021/05/24 03:57:46;;;;;;;6.63;5.93;;;7.10;99.90;;;;;;5028562;28;20211;-77
2021/05/24 04:00:13;;;;;;;6.27;5.77;;;7.00;99.90;;;;;;5043552;28;20215;-77
2021/05/24 04:02:40;;;;;;;6.50;5.73;;;7.00;99.90;;;;;;5028219;28;20208;-77
2021/05/24 04:05:13;;;;;;;6.13;5.63;;;7.00;99.90;;;;;;5027276;28;20195;-77
2021/05/24 04:07:41;;;;;;;5.57;4.93;;;7.00;99.90;;;;;;5027178;28;20741;-77
2021/05/24 04:10:08;;;;;;;5.40;5.00;;;7.00;99.90;;;;;;5035374;28;20223;-77
2021/05/24 04:12:34;;;;;;;5.80;5.30;;;7.00;99.90;;;;;;5053193;28;20334;-77
2021/05/24 04:15:01;;;;;;;5.67;5.17;;;7.00;99.90;;;;;;5035555;28;20250;-77
2021/05/24 04:17:29;;;;;;;5.03;4.70;;;7.00;99.90;;;;;;5035405;28;20208;-77
2021/05/24 04:19:56;;;;;;;5.83;5.40;;;7.00;99.90;;;;;;5037559;28;20235;-77
2021/05/24 04:22:22;;;;;;;5.60;5.10;;;7.00;99.90;;;;;;5033494;28;20192;-77
2021/05/24 04:24:48;;;;;;;5.50;5.00;;;7.00;99.90;;;;;;5033344;28;20184;-77
2021/05/24 04:27:14;;;;;;;6.03;5.53;;;7.00;99.90;;;;;;5033420;28;20611;-77
2021/05/24 04:29:41;;;;;;;5.87;5.37;;;7.10;99.90;;;;;;5015530;28;20224;-77
2021/05/24 04:32:08;;;;;;;5.83;5.33;;;7.10;99.90;;;;;;5034176;28;20188;-77
2021/05/24 04:34:34;;;;;;;5.37;4.97;;;7.10;99.90;;;;;;5023509;28;20199;-77
2021/05/24 04:37:00;;;;;;;6.13;5.10;;;7.20;99.90;;;;;;5035586;28;20200;-77
2021/05/24 04:39:27;;;;;;;6.30;5.70;;;7.30;99.90;;;;;;5031161;28;20250;-77
2021/05/24 04:41:53;;;;;;;9.50;8.80;;;7.30;99.90;;;;;;5047385;28;20196;-76
2021/05/24 04:44:20;;;;;;;8.70;8.10;;;7.40;99.90;;;;;;5035231;28;20211;-77
2021/05/24 04:46:46;;;;;;;8.90;8.20;;;7.50;99.90;;;;;;5054124;28;20286;-77
2021/05/24 04:49:14;;;;;;;8.63;8.03;;;7.50;99.90;;;;;;5025960;28;20219;-77
2021/05/24 04:51:40;;;;;;;8.63;7.90;;;7.50;99.90;;;;;;5029394;28;20286;-77
2021/05/24 04:54:07;;;;;;;8.60;8.00;;;7.50;99.90;;;;;;5043792;28;20664;-77
2021/05/24 04:56:33;;;;;;;8.57;7.97;;;7.60;99.90;;;;;;5052532;28;20197;-75
2021/05/24 04:59:00;;;;;;;8.60;8.00;;;7.50;99.90;;;;;;5051302;28;20196;-75
2021/05/24 05:01:26;;;;;;;8.73;7.90;;;7.50;99.90;;;;;;5024213;28;20582;-75
2021/05/24 05:03:53;;;;;;;8.50;7.80;;;7.60;99.90;;;;;;5030052;28;20216;-76
2021/05/24 05:06:20;;;;;;;8.63;7.93;;;7.60;99.90;;;;;;5046114;28;20196;-75
2021/05/24 05:08:46;;;;;;;8.07;7.37;;;7.80;99.90;;;;;;5054886;28;20217;-75
2021/05/24 05:11:13;;;;;;;7.10;6.60;;;7.90;99.90;;;;;;5028904;28;20225;-75
2021/05/24 05:13:40;;;;;;;6.53;6.13;;;8.00;99.90;;;;;;5023565;28;20201;-75
2021/05/24 05:16:06;;;;;;;7.60;6.90;;;8.00;99.90;;;;;;5033877;28;20215;-75
2021/05/24 05:18:33;;;;;;;7.50;6.90;;;8.10;99.90;;;;;;5041960;28;20197;-75
2021/05/24 05:20:59;;;;;;;7.50;7.00;;;8.20;99.90;;;;;;5058470;28;20291;-75
2021/05/24 05:23:27;;;;;;;8.37;7.53;;;8.30;99.90;;;;;;5054892;28;20235;-76
2021/05/24 05:25:53;;;;;;;8.43;7.57;;;8.40;99.90;;;;;;5045212;28;20188;-75
2021/05/24 05:28:21;;;;;;;8.10;7.50;;;8.40;99.90;;;;;;5054353;28;20212;-75
2021/05/24 05:30:47;;;;;;;5.67;5.30;;;8.50;99.90;;;;;;5054546;28;20231;-75
2021/05/24 05:33:14;;;;;;;3.97;3.67;;;8.50;99.90;;;;;;5053188;28;20198;-75
2021/05/24 05:35:41;;;;;;;3.70;3.40;;;8.60;99.90;;;;;;5053430;28;20213;-75
2021/05/24 05:38:07;;;;;;;3.70;3.40;;;8.70;99.90;;;;;;5047853;28;20682;-75
2021/05/24 05:40:35;;;;;;;4.23;3.77;;;8.80;99.90;;;;;;5037463;28;20287;-76
2021/05/24 05:43:01;;;;;;;4.30;3.90;;;8.80;99.90;;;;;;5051068;28;20194;-77
2021/05/24 05:45:27;;;;;;;3.57;3.23;;;8.90;99.90;;;;;;5052703;28;20596;-75
2021/05/24 05:47:54;;;;;;;5.20;4.80;;;8.90;99.90;;;;;;5046726;28;20227;-76
2021/05/24 05:50:20;;;;;;;4.93;4.53;;;8.90;99.90;;;;;;5051694;28;20226;-75
2021/05/24 05:52:46;;;;;;;4.93;4.50;;;9.00;99.90;;;;;;5040048;28;20207;-77
2021/05/24 05:55:13;;;;;;;4.67;4.37;;;9.10;99.90;;;;;;5042747;28;20202;-74
2021/05/24 05:57:40;;;;;;;5.43;4.33;;;9.20;99.90;;;;;;5045358;28;20690;-76
2021/05/24 06:00:07;;;;;;;4.70;4.30;;;9.30;99.90;;;;;;5049282;28;20759;-75
2021/05/24 06:02:37;;;;;;;3.60;3.30;;;9.30;99.90;;;;;;5052346;28;20203;-77
2021/05/24 06:05:05;;;;;;;5.40;5.00;;;9.50;99.90;;;;;;5052741;28;20195;-76
2021/05/24 06:07:34;;;;;;;6.40;6.00;;;9.60;99.90;;;;;;5053394;28;20606;-76
2021/05/24 06:10:00;;;;;;;7.17;6.57;;;9.60;99.90;;;;;;5053502;28;20731;-76
2021/05/24 06:12:26;;;;;;;6.93;6.33;;;9.70;99.90;;;;;;5053766;28;20206;-76
2021/05/24 06:14:54;;;;;;;5.83;5.40;;;9.80;99.90;;;;;;5049658;28;20206;-76
2021/05/24 06:17:20;;;;;;;7.03;6.30;;;9.90;99.90;;;;;;5049607;28;20202;-76
2021/05/24 06:19:47;;;;;;;6.17;5.70;;;10.00;99.90;;;;;;5038021;28;20224;-75
2021/05/24 06:22:13;;;;;;;6.17;5.67;;;10.20;99.90;;;;;;5043184;28;20191;-76
2021/05/24 06:24:40;;;;;;;6.07;5.60;;;10.30;99.90;;;;;;5029486;28;20253;-76
2021/05/24 06:27:08;;;;;;;5.80;5.33;;;10.50;99.90;;;;;;5026082;28;20203;-75
2021/05/24 06:29:37;;;;;;;6.97;6.27;;;10.50;99.90;;;;;;5045343;28;20307;-77
2021/05/24 06:32:05;;;;;;;6.97;6.47;;;10.70;99.90;;;;;;5024140;28;20223;-77
2021/05/24 06:34:31;;;;;;;7.00;6.50;;;10.80;99.90;;;;;;5032770;28;20691;-77
2021/05/24 06:36:58;;;;;;;6.10;5.60;;;11.00;99.90;;;;;;5046482;28;20198;-77
2021/05/24 06:39:24;;;;;;;5.00;4.60;;;11.10;99.90;;;;;;5028426;28;20199;-77
2021/05/24 06:41:51;;;;;;;7.30;6.70;;;11.30;99.90;;;;;;5035330;28;20225;-76
2021/05/24 06:44:18;;;;;;;7.43;6.93;;;11.30;99.90;;;;;;5046282;28;20197;-78
2021/05/24 06:46:45;;;;;;;7.30;6.80;;;11.40;99.90;;;;;;5038699;28;20545;-75
2021/05/24 06:49:12;;;;;;;7.07;6.60;;;11.40;99.90;;;;;;5034686;28;20268;-75
2021/05/24 06:51:38;;;;;;;7.30;6.67;;;11.50;99.90;;;;;;5030883;28;20204;-75
2021/05/24 06:54:05;;;;;;;6.67;6.10;;;11.60;99.90;;;;;;5043618;28;20201;-75
2021/05/24 06:56:31;;;;;;;7.10;6.60;;;11.70;99.90;;;;;;5022547;28;20250;-76
2021/05/24 06:58:58;;;;;;;6.27;5.77;;;11.80;99.90;;;;;;5051420;28;20215;-75
2021/05/24 07:01:24;;;;;;;5.80;5.40;;;11.90;99.90;;;;;;5034831;28;20223;-75
2021/05/24 07:03:50;;;;;;;6.00;5.60;;;12.00;99.90;;;;;;5028143;28;20221;-75
2021/05/24 07:06:17;;;;;;;5.80;5.40;;;12.10;99.90;;;;;;5049080;28;20206;-76
2021/05/24 07:08:44;;;;;;;4.83;4.50;;;12.30;99.90;;;;;;5046573;28;20257;-75
2021/05/24 07:11:10;;;;;;;4.80;4.37;;;12.60;99.90;;;;;;5051921;28;20311;-75
2021/05/24 07:13:36;;;;;;;5.87;3.67;;;12.80;99.90;;;;;;5043666;28;20222;-75
2021/05/24 07:16:03;;;;;;;4.07;3.77;;;13.20;99.90;;;;;;5049489;28;20207;-75
2021/05/24 07:18:29;;;;;;;4.03;3.50;;;13.40;99.90;;;;;;5036720;28;20570;-76
2021/05/24 07:20:56;;;;;;;4.53;4.13;;;13.60;99.90;;;;;;5029531;28;20807;-75
2021/05/24 07:23:23;;;;;;;5.47;3.70;;;13.90;99.90;;;;;;5051797;28;20439;-75
2021/05/24 07:25:49;;;;;;;4.73;4.23;;;14.40;99.90;;;;;;5033760;28;20214;-76
2021/05/24 07:28:16;;;;;;;4.47;4.07;;;14.70;99.90;;;;;;5022518;28;20219;-76
2021/05/24 07:30:42;;;;;;;4.00;3.70;;;14.90;99.90;;;;;;5044264;28;20703;-76
2021/05/24 07:33:08;;;;;;;4.40;4.10;;;15.00;99.90;;;;;;5034614;28;20211;-76
2021/05/24 07:35:35;;;;;;;3.67;3.37;;;15.20;99.90;;;;;;5025098;28;20223;-76
2021/05/24 07:38:01;;;;;;;4.93;4.53;;;15.40;99.90;;;;;;5046180;28;20201;-75
2021/05/24 07:40:28;;;;;;;5.00;4.60;;;16.10;99.90;;;;;;5040196;28;20220;-76
2021/05/24 07:42:54;;;;;;;5.27;4.40;;;16.30;99.90;;;;;;5052088;28;20199;-76
2021/05/24 07:45:21;;;;;;;3.13;2.50;;;16.50;99.90;;;;;;5041146;28;20961;-76
2021/05/24 07:47:47;;;;;;;4.83;4.33;;;16.80;99.90;;;;;;5036623;28;20205;-76
2021/05/24 07:50:14;;;;;;;5.30;4.80;;;17.40;99.90;;;;;;5033959;28;20312;-76
2021/05/24 07:52:40;;;;;;;4.50;4.13;;;17.70;99.90;;;;;;5047062;28;20227;-76
2021/05/24 07:55:07;;;;;;;5.00;4.30;;;17.70;99.90;;;;;;5044284;28;20553;-76
2021/05/24 07:57:36;;;;;;;5.33;3.80;;;17.60;99.90;;;;;;5025026;28;20214;-76
2021/05/24 08:00:05;;;;;;;4.07;3.60;;;17.70;99.90;;;;;;5022653;28;20219;-76
2021/05/24 08:02:31;;;;;;;3.00;2.60;;;18.10;99.90;;;;;;5044119;28;20290;-76
2021/05/24 08:04:57;;;;;;;4.47;4.07;;;18.20;99.90;;;;;;5033989;28;20199;-76
2021/05/24 08:07:24;;;;;;;4.87;4.47;;;18.10;99.90;;;;;;5048277;28;20261;-76
2021/05/24 08:09:51;;;;;;;4.60;4.30;;;18.30;99.90;;;;;;5034891;28;20226;-76
2021/05/24 08:12:18;;;;;;;3.50;3.30;;;18.50;99.90;;;;;;5040482;28;20195;-76
2021/05/24 08:14:45;;;;;;;3.20;2.90;;;18.40;99.90;;;;;;5028042;28;20632;-77
2021/05/24 08:17:11;;;;;;;3.20;3.00;;;18.30;99.90;;;;;;5048936;28;20208;-77
2021/05/24 08:19:38;;;;;;;4.17;3.80;;;18.20;99.90;;;;;;5028391;28;20238;-76
2021/05/24 08:22:04;;;;;;;3.63;3.33;;;18.00;99.90;;;;;;5025275;28;20246;-76
2021/05/24 08:24:30;;;;;;;3.67;3.33;;;17.80;99.90;;;;;;5047830;28;20242;-76
2021/05/24 08:26:57;;;;;;;3.70;3.40;;;17.80;99.90;;;;;;5047708;28;20214;-76
2021/05/24 08:29:23;;;;;;;5.93;5.53;;;17.40;99.90;;;;;;5044376;28;20211;-75
2021/05/24 08:31:50;;;;;;;6.20;5.73;;;17.40;99.90;;;;;;5055844;28;20246;-76
2021/05/24 08:34:17;;;;;;;6.33;5.80;;;17.30;99.90;;;;;;5029253;28;20214;-76
2021/05/24 08:36:43;;;;;;;5.87;5.57;;;17.20;99.90;;;;;;5043536;28;20199;-76
2021/05/24 08:39:10;;;;;;;6.30;5.90;;;17.30;99.90;;;;;;5049353;28;20220;-76
2021/05/24 08:41:37;;;;;;;6.33;5.83;;;17.20;99.90;;;;;;5030693;28;20255;-76
2021/05/24 08:44:04;;;;;;;6.00;5.50;;;17.30;99.90;;;;;;5055550;28;20203;-76
2021/05/24 08:46:30;;;;;;;5.90;5.50;;;17.40;99.90;;;;;;5037464;28;20639;-76
2021/05/24 08:48:58;;;;;;;6.17;5.67;;;17.40;99.90;;;;;;5034688;28;20235;-76
2021/05/24 08:51:25;;;;;;;5.83;5.50;;;17.30;99.90;;;;;;5069169;22;20776;-77
2021/05/24 08:53:52;;;;;;;6.00;5.60;;;17.50;99.90;;;;;;5070354;28;20201;-77
2021/05/24 08:56:18;;;;;;;6.40;5.90;;;17.60;99.90;;;;;;5055127;28;20206;-77
2021/05/24 08:58:44;;;;;;;6.07;5.60;;;17.60;99.90;;;;;;5059698;28;20205;-77
2021/05/24 09:01:11;;;;;;;8.10;6.60;;;17.70;99.90;;;;;;5069927;28;20218;-76
2021/05/24 09:03:38;;;;;;;6.37;5.83;;;17.90;99.90;;;;;;5062674;28;20195;-77
2021/05/24 09:06:10;;;;;;;6.50;6.00;;;18.00;99.90;;;;;;5046712;28;20220;-77
2021/05/24 09:08:38;;;;;;;6.30;5.90;;;18.20;99.90;;;;;;5058189;28;20645;-77
2021/05/24 09:11:04;;;;;;;6.00;5.70;;;18.40;99.90;;;;;;5043922;28;20272;-77
2021/05/24 09:13:32;;;;;;;6.80;6.20;;;18.50;99.90;;;;;;5067243;28;20203;-77
2021/05/24 09:15:59;;;;;;;7.00;6.60;;;18.70;99.90;;;;;;5065410;28;20196;-78
2021/05/24 09:18:26;;;;;;;3.53;3.33;;;18.70;99.90;;;;;;5053728;28;20197;-76
2021/05/24 09:20:53;;;;;;;5.23;4.93;;;18.70;99.90;;;;;;5041675;28;20359;-77
2021/05/24 09:23:22;;;;;;;6.07;5.67;;;18.80;99.90;;;;;;5044825;28;20205;-76
2021/05/24 09:25:54;;;;;;;6.30;5.90;;;18.90;99.90;;;;;;5051051;28;20205;-77
2021/05/24 09:28:28;;;;;;;6.13;5.73;;;19.00;99.90;;;;;;5057291;28;20221;-77
2021/05/24 09:30:57;;;;;;;5.93;5.53;;;19.10;99.90;;;;;;5056194;28;20217;-77
2021/05/24 09:33:24;;;;;;;5.23;4.80;;;19.10;99.90;;;;;;5061785;28;20232;-77
2021/05/24 09:35:51;;;;;;;5.50;5.20;;;19.30;99.90;;;;;;5056512;28;20201;-77
2021/05/24 09:38:21;;;;;;;6.40;5.90;;;19.50;99.90;;;;;;5064162;28;20715;-77
2021/05/24 09:40:59;;;;;;;5.50;5.10;;;19.40;99.90;;;;;;5063571;28;20582;-77
2021/05/24 09:43:30;;;;;;;3.60;3.30;;;19.30;99.90;;;;;;5072976;28;20617;-77
2021/05/24 09:46:10;;;;;;;4.90;4.70;;;19.30;99.90;;;;;;5057618;28;20202;-77
2021/05/24 09:48:37;;;;;;;3.70;3.40;;;19.40;99.90;;;;;;5070210;28;20222;-77
2021/05/24 09:51:08;;;;;;;6.50;6.10;;;19.40;99.90;;;;;;5051437;28;20241;-77
2021/05/24 09:53:34;;;;;;;6.33;5.93;;;19.40;99.90;;;;;;5063555;28;20209;-77
2021/05/24 09:56:06;;;;;;;6.20;5.80;;;19.60;99.90;;;;;;5067521;28;20643;-77
2021/05/24 09:58:33;;;;;;;6.83;6.33;;;19.70;99.90;;;;;;5060608;28;20262;-76
2021/05/24 10:01:14;;;;;;;6.57;6.10;;;19.50;99.90;;;;;;5049737;28;20357;-78
2021/05/24 10:03:42;;;;;;;4.23;4.00;;;19.60;99.90;;;;;;5046528;28;20661;-76
2021/05/24 10:06:09;;;;;;;4.33;4.00;;;19.80;99.90;;;;;;5067054;28;20232;-77
2021/05/24 10:08:35;;;;;;;6.37;5.97;;;19.60;99.90;;;;;;5065677;28;20432;-77
2021/05/24 10:11:03;;;;;;;6.40;6.00;;;19.80;99.90;;;;;;5065969;28;20218;-77
2021/05/24 10:13:30;;;;;;;6.17;5.77;;;20.10;99.90;;;;;;5043565;28;20209;-77
2021/05/24 10:16:01;;;;;;;4.43;4.13;;;20.00;99.90;;;;;;5065792;28;20190;-77
2021/05/24 10:18:28;;;;;;;4.07;3.70;;;19.90;99.90;;;;;;5062400;28;20193;-77
2021/05/24 10:20:57;;;;;;;3.80;3.60;;;20.00;99.90;;;;;;5046956;28;20280;-77
2021/05/24 10:23:24;;;;;;;6.23;5.83;;;20.10;99.90;;;;;;5048464;28;20210;-77
2021/05/24 10:25:53;;;;;;;5.00;4.70;;;20.10;99.90;;;;;;5047726;28;20195;-76
2021/05/24 10:28:22;;;;;;;3.63;3.43;;;20.10;99.90;;;;;;5066251;28;20214;-77
2021/05/24 10:30:49;;;;;;;5.00;4.60;;;19.90;99.90;;;;;;5047217;28;20226;-77
2021/05/24 10:33:15;;;;;;;6.37;5.97;;;20.10;99.90;;;;;;5046742;28;20206;-76
2021/05/24 10:35:43;;;;;;;7.03;6.53;;;20.30;99.90;;;;;;5066105;28;20277;-77
2021/05/24 10:38:27;;;;;;;6.40;6.00;;;20.20;99.90;;;;;;5047294;28;20252;-77
2021/05/24 10:41:02;;;;;;;5.97;5.67;;;20.00;99.90;;;;;;5044483;28;20344;-77
2021/05/24 10:43:39;;;;;;;5.70;5.40;;;19.90;99.90;;;;;;5072709;28;20198;-77
2021/05/24 10:46:34;;;;;;;6.43;5.93;;;19.80;99.90;;;;;;5074716;28;20205;-77
2021/05/24 10:49:04;;;;;;;5.97;5.57;;;19.90;99.90;;;;;;5074544;28;20218;-77
2021/05/24 10:51:58;;;;;;;5.40;5.10;;;19.80;99.90;;;;;;5073801;28;20230;-77
2021/05/24 10:54:28;;;;;;;5.93;5.53;;;19.90;99.90;;;;;;5073530;28;20261;-77
2021/05/24 10:57:17;;;;;;;5.87;5.53;;;19.80;99.90;;;;;;5055298;28;20848;-77
2021/05/24 10:59:54;;;;;;;6.23;5.77;;;19.60;99.90;;;;;;5071121;28;20248;-76
2021/05/24 11:02:38;;;;;;;5.90;5.50;;;19.60;99.90;;;;;;5055308;28;20211;-77
2021/05/24 11:05:20;;;;;;;6.20;5.80;;;19.60;99.90;;;;;;5069507;28;20215;-75
2021/05/24 11:07:48;;;;;;;6.40;5.90;;;19.60;99.90;;;;;;5068952;28;20280;-75
2021/05/24 11:10:26;;;;;;;6.30;5.90;;;19.60;99.90;;;;;;5070744;28;20227;-74
2021/05/24 11:12:54;;;;;;;6.70;6.20;;;19.70;99.90;;;;;;5068288;28;20201;-75
2021/05/24 11:15:23;;;;;;;7.07;6.47;;;19.90;99.90;;;;;;5053147;28;20274;-74
2021/05/24 11:18:19;;;;;;;7.57;6.97;;;20.20;99.90;;;;;;5070387;28;20308;-75
2021/05/24 11:20:50;;;;;;;7.60;7.00;;;20.60;99.90;;;;;;5070270;28;20248;-78
2021/05/24 11:23:23;;;;;;;8.27;7.60;;;20.60;99.90;;;;;;5078715;28;20197;-81
2021/05/24 11:25:53;;;;;;;7.90;7.30;;;20.80;99.90;;;;;;5059604;28;20304;-78
2021/05/24 11:28:21;;;;;;;7.00;6.50;;;21.00;99.90;;;;;;5069956;28;20807;-77
2021/05/24 11:31:11;;;;;;;7.20;6.50;;;21.20;99.90;;;;;;5062415;28;20215;-76
2021/05/24 11:33:53;;;;;;;7.00;6.50;;;21.20;99.90;;;;;;5042682;28;20700;-76
2021/05/24 11:36:22;;;;;;;6.50;6.10;;;21.20;99.90;;;;;;5050836;28;20194;-76
2021/05/24 11:39:05;;;;;;;6.70;6.30;;;21.20;99.90;;;;;;5057021;28;20191;-76
2021/05/24 11:41:32;;;;;;;7.40;6.80;;;21.20;99.90;;;;;;5058639;28;20218;-76
2021/05/24 11:44:01;;;;;;;6.83;6.33;;;21.30;99.90;;;;;;5063764;28;20583;-75
2021/05/24 11:46:41;;;;;;;6.57;6.13;;;21.50;99.90;;;;;;5057623;28;20245;-75
2021/05/24 11:49:08;;;;;;;6.40;5.93;;;21.40;99.90;;;;;;5066608;28;20264;-74
2021/05/24 11:51:35;;;;;;;5.93;5.63;;;21.40;99.90;;;;;;5057382;28;20218;-75
2021/05/24 11:54:06;;;;;;;5.87;5.50;;;21.40;99.90;;;;;;5064646;28;20679;-77
2021/05/24 11:56:38;;;;;;;6.20;5.70;;;21.40;99.90;;;;;;5048939;28;20202;-77
2021/05/24 11:59:05;;;;;;;5.97;5.57;;;21.20;99.90;;;;;;5050530;28;20202;-77
2021/05/24 12:01:32;;;;;;;5.80;5.40;;;21.10;99.90;;;;;;5049930;28;20734;-77
2021/05/24 12:03:58;;;;;;;5.40;5.10;;;21.00;99.90;;;;;;5044180;28;20251;-78
2021/05/24 12:06:27;;;;;;;5.63;5.23;;;21.00;99.90;;;;;;5062526;28;20195;-77
2021/05/24 12:08:53;;;;;;;6.57;5.97;;;20.80;99.90;;;;;;5050538;28;20223;-77
2021/05/24 12:11:19;;;;;;;5.47;5.17;;;20.60;99.90;;;;;;5066527;28;20244;-77
2021/05/24 12:14:00;;;;;;;5.60;5.20;;;20.50;99.90;;;;;;5066131;28;20195;-76
2021/05/24 12:16:28;;;;;;;5.60;5.20;;;20.50;99.90;;;;;;5054818;28;20210;-77
2021/05/24 12:18:56;;;;;;;5.60;5.20;;;20.30;99.90;;;;;;5054881;28;20209;-79
2021/05/24 12:21:34;;;;;;;5.80;5.40;;;20.20;99.90;;;;;;5065189;28;20714;-77
2021/05/24 12:24:00;;;;;;;5.60;5.30;;;20.00;99.90;;;;;;5068764;28;20198;-77
2021/05/24 12:26:27;;;;;;;5.50;5.10;;;19.90;99.90;;;;;;5058698;28;20292;-77
2021/05/24 12:28:54;;;;;;;5.70;5.30;;;19.80;99.90;;;;;;5041721;28;20226;-76
2021/05/24 12:31:21;;;;;;;5.80;5.40;;;19.90;99.90;;;;;;5068956;28;20213;-76
2021/05/24 12:33:48;;;;;;;5.53;5.23;;;20.00;99.90;;;;;;5054779;28;20682;-77
2021/05/24 12:36:18;;;;;;;5.67;5.27;;;20.00;99.90;;;;;;5041291;28;20672;-77
2021/05/24 12:38:48;;;;;;;5.50;5.20;;;20.10;99.90;;;;;;5035962;28;20224;-78
2021/05/24 12:41:16;;;;;;;5.40;5.00;;;20.10;99.90;;;;;;5050634;28;20307;-77
2021/05/24 12:43:54;;;;;;;5.83;5.40;;;20.10;99.90;;;;;;5063182;28;20202;-77
2021/05/24 12:46:21;;;;;;;5.60;5.30;;;20.30;99.90;;;;;;5057063;28;20566;-77
2021/05/24 12:48:51;;;;;;;5.70;5.40;;;20.40;99.90;;;;;;5063614;28;20201;-77
2021/05/24 12:51:20;;;;;;;5.40;5.10;;;20.50;99.90;;;;;;5056721;28;20225;-77
2021/05/24 12:53:55;;;;;;;6.40;5.90;;;20.60;99.90;;;;;;5044921;28;20202;-77
2021/05/24 12:56:23;;;;;;;6.33;5.93;;;20.50;99.90;;;;;;5044103;28;20204;-77
2021/05/24 12:58:49;;;;;;;6.50;6.00;;;20.70;99.90;;;;;;5061292;28;20255;-77